Time;durP1;ratioP1;P1;durP2;ratioP2;P2;SDS_P1;SDS_P2;PMS_P1;PMS_P2;Temp;Humidity;BMP_temperature;BMP_pressure;BME280_temperature;BME280_humidity;BME280_pressure;Samples;Min_cycle;Max_cycle;Signal;HPM_P1;HPM_P2
2023/08/02 00:00:47;;;;;;;10.32;4.00;;;15.00;99.90;;;;;;5034469;28;20229;-74
2023/08/02 00:03:13;;;;;;;6.53;4.03;;;15.00;99.90;;;;;;5033924;28;20663;-73
2023/08/02 00:05:40;;;;;;;9.23;4.32;;;15.00;99.90;;;;;;5016001;28;20195;-74
2023/08/02 00:08:08;;;;;;;8.88;4.07;;;15.10;99.90;;;;;;5016618;28;20178;-74
2023/08/02 00:10:37;;;;;;;9.23;3.83;;;15.10;99.90;;;;;;5016621;28;20652;-77
2023/08/02 00:13:04;;;;;;;6.68;3.90;;;15.20;99.90;;;;;;5016170;28;20187;-77
2023/08/02 00:15:30;;;;;;;8.27;4.22;;;15.20;99.90;;;;;;5016396;28;20207;-76
2023/08/02 00:17:56;;;;;;;16.77;4.15;;;15.20;99.90;;;;;;5016445;28;20183;-76
2023/08/02 00:20:22;;;;;;;8.90;4.10;;;15.20;99.90;;;;;;5033941;28;20664;-76
2023/08/02 00:22:48;;;;;;;7.80;3.97;;;15.20;99.90;;;;;;5033868;28;20199;-77
2023/08/02 00:25:13;;;;;;;7.70;3.75;;;15.10;99.90;;;;;;5015978;28;20224;-76
2023/08/02 00:27:39;;;;;;;7.70;4.07;;;15.10;99.90;;;;;;5016239;28;20175;-76
2023/08/02 00:30:06;;;;;;;8.27;3.67;;;15.10;99.90;;;;;;5016332;28;20246;-76
2023/08/02 00:32:31;;;;;;;8.88;4.05;;;15.10;99.90;;;;;;5016237;28;20183;-76
2023/08/02 00:34:57;;;;;;;13.80;3.60;;;15.10;99.90;;;;;;5016287;28;20183;-76
2023/08/02 00:37:23;;;;;;;10.65;4.10;;;15.10;99.90;;;;;;5033713;28;20203;-76
2023/08/02 00:39:53;;;;;;;9.77;3.85;;;15.10;99.90;;;;;;5034758;28;20651;-76
2023/08/02 00:42:19;;;;;;;12.10;4.47;;;15.00;99.90;;;;;;5018432;28;20203;-76
2023/08/02 00:44:45;;;;;;;10.93;4.13;;;15.00;99.90;;;;;;5018157;28;20238;-76
2023/08/02 00:47:14;;;;;;;7.85;4.10;;;15.00;99.90;;;;;;5021969;28;20229;-75
2023/08/02 00:49:40;;;;;;;9.73;4.18;;;15.00;99.90;;;;;;5021797;28;20535;-75
2023/08/02 00:52:06;;;;;;;7.30;3.95;;;15.10;99.90;;;;;;5019724;28;20240;-75
2023/08/02 00:54:32;;;;;;;7.80;4.20;;;15.10;99.90;;;;;;5019687;28;20189;-75
2023/08/02 00:56:59;;;;;;;7.90;3.95;;;15.10;99.90;;;;;;5020136;28;20282;-75
2023/08/02 00:59:25;;;;;;;9.13;3.75;;;15.10;99.90;;;;;;5037390;28;20174;-75
2023/08/02 01:01:51;;;;;;;10.50;4.32;;;15.10;99.90;;;;;;5019556;28;20662;-75
2023/08/02 01:04:16;;;;;;;7.47;3.72;;;15.10;99.90;;;;;;5037778;28;20538;-75
2023/08/02 01:06:49;;;;;;;6.68;3.88;;;15.10;99.90;;;;;;5019286;28;20199;-75
2023/08/02 01:09:35;;;;;;;8.43;3.95;;;15.10;99.90;;;;;;5019578;28;20651;-75
2023/08/02 01:12:09;;;;;;;8.60;4.00;;;15.10;99.90;;;;;;5037229;28;20166;-75
2023/08/02 01:14:39;;;;;;;6.43;3.78;;;15.00;99.90;;;;;;5019292;28;20167;-75
2023/08/02 01:17:05;;;;;;;8.90;3.75;;;15.00;99.90;;;;;;5036979;28;20269;-75
2023/08/02 01:19:32;;;;;;;8.93;4.10;;;15.00;99.90;;;;;;5036851;28;20656;-75
2023/08/02 01:21:57;;;;;;;14.07;4.72;;;15.00;99.90;;;;;;5036622;28;20194;-75
2023/08/02 01:24:31;;;;;;;7.03;3.67;;;14.90;99.90;;;;;;5037187;28;20640;-76
2023/08/02 01:26:59;;;;;;;6.43;3.50;;;14.90;99.90;;;;;;5018885;28;20206;-76
2023/08/02 01:29:26;;;;;;;8.90;3.55;;;14.90;99.90;;;;;;5018921;28;20171;-75
2023/08/02 01:31:55;;;;;;;6.75;3.70;;;14.80;99.90;;;;;;5036734;28;20241;-75
2023/08/02 01:34:22;;;;;;;7.72;3.58;;;14.80;99.90;;;;;;5019064;28;20186;-75
2023/08/02 01:36:47;;;;;;;6.40;3.45;;;14.80;99.90;;;;;;5036355;28;20245;-76
2023/08/02 01:39:14;;;;;;;15.68;3.95;;;14.80;99.90;;;;;;5036835;28;20171;-75
2023/08/02 01:41:40;;;;;;;6.55;3.30;;;14.80;99.90;;;;;;5018847;28;20183;-76
2023/08/02 01:44:06;;;;;;;6.18;3.85;;;14.80;99.90;;;;;;5036439;28;20198;-76
2023/08/02 01:46:31;;;;;;;7.10;3.95;;;14.80;99.90;;;;;;5040678;28;20199;-75
2023/08/02 01:48:57;;;;;;;8.30;3.88;;;14.70;99.90;;;;;;5037095;28;20183;-75
2023/08/02 01:51:24;;;;;;;8.32;3.78;;;14.70;99.90;;;;;;5017737;28;20171;-75
2023/08/02 01:53:50;;;;;;;13.10;3.78;;;14.70;99.90;;;;;;5036227;28;20175;-75
2023/08/02 01:56:16;;;;;;;5.18;3.70;;;14.70;99.90;;;;;;5018028;28;20213;-75
2023/08/02 01:58:42;;;;;;;16.27;3.88;;;14.70;99.90;;;;;;5017022;28;20187;-75
2023/08/02 02:01:07;;;;;;;9.23;3.75;;;14.80;99.90;;;;;;5018243;28;20666;-75
2023/08/02 02:03:33;;;;;;;6.75;3.50;;;14.70;99.90;;;;;;5035954;28;20199;-75
2023/08/02 02:05:59;;;;;;;8.65;3.80;;;14.70;99.90;;;;;;5035647;28;20748;-76
2023/08/02 02:08:25;;;;;;;5.82;3.80;;;14.70;99.90;;;;;;5018173;28;20206;-76
2023/08/02 02:10:52;;;;;;;6.00;3.78;;;14.70;99.90;;;;;;5035811;28;20574;-76
2023/08/02 02:13:18;;;;;;;8.07;3.85;;;14.70;99.90;;;;;;5018192;28;20187;-76
2023/08/02 02:15:44;;;;;;;8.52;4.13;;;14.70;99.90;;;;;;5035815;28;20222;-75
2023/08/02 02:18:10;;;;;;;5.45;3.63;;;14.70;99.90;;;;;;5035597;28;20237;-76
2023/08/02 02:20:36;;;;;;;7.38;4.60;;;14.70;99.90;;;;;;5017660;28;20180;-76
2023/08/02 02:23:01;;;;;;;8.15;4.70;;;14.70;99.90;;;;;;5017580;28;20210;-76
2023/08/02 02:25:27;;;;;;;7.22;3.92;;;14.80;99.90;;;;;;5035560;28;20183;-76
2023/08/02 02:27:53;;;;;;;9.63;4.65;;;14.70;99.90;;;;;;5017810;28;20253;-76
2023/08/02 02:30:19;;;;;;;10.10;4.50;;;14.80;99.90;;;;;;5035572;28;20237;-76
2023/08/02 02:32:44;;;;;;;7.72;4.70;;;14.80;99.90;;;;;;5017904;28;20179;-75
2023/08/02 02:35:14;;;;;;;7.35;4.60;;;14.80;99.90;;;;;;5035636;28;20225;-76
2023/08/02 02:37:41;;;;;;;10.13;5.18;;;14.80;99.90;;;;;;5035087;28;20245;-75
2023/08/02 02:40:08;;;;;;;7.32;4.22;;;14.80;99.90;;;;;;5017570;28;20186;-76
2023/08/02 02:42:34;;;;;;;7.80;4.50;;;14.80;99.90;;;;;;5035179;28;20280;-76
2023/08/02 02:44:59;;;;;;;10.70;4.95;;;14.80;99.90;;;;;;5035286;28;20618;-76
2023/08/02 02:47:25;;;;;;;10.15;4.80;;;14.80;99.90;;;;;;5017470;28;20286;-76
2023/08/02 02:49:51;;;;;;;6.60;4.63;;;14.80;99.90;;;;;;5017346;28;20325;-76
2023/08/02 02:52:16;;;;;;;5.68;4.55;;;14.80;99.90;;;;;;5017190;28;20187;-76
2023/08/02 02:54:42;;;;;;;8.75;4.88;;;14.90;99.90;;;;;;5017333;28;20237;-76
2023/08/02 02:57:09;;;;;;;9.35;4.53;;;14.90;99.90;;;;;;5034895;28;20195;-76
2023/08/02 02:59:35;;;;;;;11.73;5.07;;;14.90;99.90;;;;;;5017340;28;20269;-76
2023/08/02 03:02:01;;;;;;;7.28;4.00;;;15.00;99.90;;;;;;5017091;28;20197;-76
2023/08/02 03:04:27;;;;;;;6.07;4.82;;;15.00;99.90;;;;;;5017145;28;20655;-76
2023/08/02 03:06:53;;;;;;;12.15;4.47;;;15.00;99.90;;;;;;5034501;28;20302;-76
2023/08/02 03:09:19;;;;;;;7.32;4.70;;;15.00;99.90;;;;;;5016782;28;20651;-76
2023/08/02 03:11:45;;;;;;;10.52;4.65;;;15.10;99.90;;;;;;5035004;28;20671;-76
2023/08/02 03:14:12;;;;;;;6.68;4.30;;;15.00;99.90;;;;;;5034721;28;20182;-76
2023/08/02 03:16:38;;;;;;;5.63;4.47;;;15.00;99.90;;;;;;5034849;28;20199;-76
2023/08/02 03:19:04;;;;;;;10.63;4.85;;;15.00;99.90;;;;;;5016880;28;20183;-75
2023/08/02 03:21:30;;;;;;;8.88;4.18;;;15.00;99.90;;;;;;5016467;28;20186;-76
2023/08/02 03:23:56;;;;;;;8.93;3.92;;;15.00;99.90;;;;;;5034358;28;20667;-76
2023/08/02 03:26:22;;;;;;;18.45;4.25;;;15.10;99.90;;;;;;5016659;28;20199;-76
2023/08/02 03:28:47;;;;;;;4.80;3.88;;;15.10;99.90;;;;;;5034385;28;20606;-76
2023/08/02 03:31:13;;;;;;;6.80;4.47;;;15.10;99.90;;;;;;5016814;28;20183;-76
2023/08/02 03:33:39;;;;;;;7.45;4.07;;;15.10;99.90;;;;;;5034439;28;20171;-76
2023/08/02 03:36:05;;;;;;;8.52;3.53;;;15.10;99.90;;;;;;5034293;28;20309;-76
2023/08/02 03:38:31;;;;;;;7.95;4.00;;;15.10;99.90;;;;;;5016313;28;20547;-76
2023/08/02 03:40:57;;;;;;;6.00;3.45;;;15.10;99.90;;;;;;5034101;28;20278;-76
2023/08/02 03:43:23;;;;;;;6.43;4.00;;;15.10;99.90;;;;;;5033978;28;20265;-76
2023/08/02 03:45:49;;;;;;;6.03;3.88;;;15.20;99.90;;;;;;5034478;28;20194;-78
2023/08/02 03:48:15;;;;;;;8.48;3.78;;;15.10;99.90;;;;;;5020202;28;20179;-78
2023/08/02 03:50:41;;;;;;;5.88;3.90;;;15.20;99.90;;;;;;5019090;28;20180;-78
2023/08/02 03:53:07;;;;;;;6.00;3.88;;;15.20;99.90;;;;;;5017899;28;20245;-79
2023/08/02 03:55:33;;;;;;;6.65;3.72;;;15.20;99.90;;;;;;5037095;28;20199;-79
2023/08/02 03:57:59;;;;;;;7.25;4.10;;;15.20;99.90;;;;;;5018086;28;20183;-77
2023/08/02 04:00:25;;;;;;;7.30;4.20;;;15.30;99.90;;;;;;5035895;28;20183;-78
2023/08/02 04:02:50;;;;;;;12.98;4.13;;;15.30;99.90;;;;;;5035657;28;20675;-78
2023/08/02 04:05:16;;;;;;;8.00;3.70;;;15.30;99.90;;;;;;5017860;28;20207;-78
2023/08/02 04:07:43;;;;;;;6.93;3.50;;;15.30;99.90;;;;;;5017832;28;20309;-78
2023/08/02 04:10:09;;;;;;;7.57;3.83;;;15.30;99.90;;;;;;5035995;28;20658;-79
2023/08/02 04:12:35;;;;;;;9.68;4.05;;;15.30;99.90;;;;;;5035593;28;20183;-78
2023/08/02 04:15:03;;;;;;;7.07;2.95;;;15.40;99.90;;;;;;5035879;28;20194;-79
2023/08/02 04:17:28;;;;;;;7.15;3.45;;;15.40;99.90;;;;;;5036131;28;20202;-79
2023/08/02 04:19:54;;;;;;;4.30;3.35;;;15.40;99.90;;;;;;5018406;28;20179;-78
2023/08/02 04:22:22;;;;;;;6.47;3.50;;;15.40;99.90;;;;;;5017034;28;20597;-76
2023/08/02 04:24:48;;;;;;;7.72;3.78;;;15.40;99.90;;;;;;5033457;28;20711;-76
2023/08/02 04:27:13;;;;;;;7.65;3.10;;;15.40;99.90;;;;;;5015794;28;20282;-76
2023/08/02 04:29:39;;;;;;;7.25;3.38;;;15.40;99.90;;;;;;5033471;28;20250;-76
2023/08/02 04:32:05;;;;;;;5.43;3.60;;;15.40;99.90;;;;;;5015902;28;20193;-76
2023/08/02 04:34:31;;;;;;;5.90;3.25;;;15.40;99.90;;;;;;5015749;28;20179;-76
2023/08/02 04:36:56;;;;;;;7.68;3.70;;;15.40;99.90;;;;;;5033192;28;20207;-76
2023/08/02 04:39:22;;;;;;;7.00;3.80;;;15.40;99.90;;;;;;5015764;28;20177;-76
2023/08/02 04:41:54;;;;;;;5.60;3.72;;;15.40;99.90;;;;;;5015697;28;20669;-76
2023/08/02 04:44:20;;;;;;;9.75;4.40;;;15.40;99.90;;;;;;5033559;28;20156;-76
2023/08/02 04:46:46;;;;;;;9.52;3.60;;;15.40;99.90;;;;;;5033338;28;20560;-76
2023/08/02 04:49:12;;;;;;;5.57;3.53;;;15.40;99.90;;;;;;5015798;28;20630;-76
2023/08/02 04:51:38;;;;;;;7.38;3.47;;;15.40;99.90;;;;;;5032976;28;20185;-76
2023/08/02 04:54:05;;;;;;;8.75;4.10;;;15.40;99.90;;;;;;5015823;28;20175;-76
2023/08/02 04:56:31;;;;;;;5.80;3.45;;;15.40;99.90;;;;;;5033515;28;20243;-76
2023/08/02 04:58:57;;;;;;;7.18;3.50;;;15.40;99.90;;;;;;5015750;28;20616;-76
2023/08/02 05:01:22;;;;;;;8.23;3.75;;;15.40;99.90;;;;;;5033435;28;20237;-76
2023/08/02 05:03:48;;;;;;;6.72;3.00;;;15.40;99.90;;;;;;5033528;28;20574;-76
2023/08/02 05:06:14;;;;;;;6.75;3.35;;;15.40;99.90;;;;;;5016422;28;20195;-77
2023/08/02 05:08:40;;;;;;;5.82;3.25;;;15.40;99.90;;;;;;5015521;28;20185;-76
2023/08/02 05:11:06;;;;;;;6.88;3.17;;;15.40;99.90;;;;;;5015503;28;20181;-76
2023/08/02 05:13:33;;;;;;;8.50;3.90;;;15.50;99.90;;;;;;5015648;28;20229;-77
2023/08/02 05:15:58;;;;;;;5.68;3.50;;;15.50;99.90;;;;;;5033232;28;20577;-76
2023/08/02 05:18:24;;;;;;;5.10;3.53;;;15.50;99.90;;;;;;5015510;28;20179;-76
2023/08/02 05:20:50;;;;;;;5.45;3.30;;;15.50;99.90;;;;;;5032898;28;20678;-77
2023/08/02 05:23:16;;;;;;;7.68;4.13;;;15.50;99.90;;;;;;5032676;28;20199;-76
2023/08/02 05:25:42;;;;;;;9.15;3.65;;;15.60;99.90;;;;;;5032870;28;20187;-77
2023/08/02 05:28:08;;;;;;;9.02;4.18;;;15.60;99.90;;;;;;5015232;28;20179;-76
2023/08/02 05:30:36;;;;;;;6.55;3.80;;;15.60;99.90;;;;;;5015070;28;20313;-76
2023/08/02 05:33:02;;;;;;;6.53;3.70;;;15.70;99.90;;;;;;5035667;28;20225;-76
2023/08/02 05:35:29;;;;;;;6.82;3.80;;;15.70;99.90;;;;;;5018858;28;20551;-77
2023/08/02 05:37:56;;;;;;;8.52;3.92;;;15.80;99.90;;;;;;5036268;28;20218;-76
2023/08/02 05:40:22;;;;;;;5.80;3.70;;;15.90;99.90;;;;;;5036452;28;20654;-76
2023/08/02 05:42:48;;;;;;;5.15;3.28;;;15.90;99.90;;;;;;5036577;28;20201;-77
2023/08/02 05:45:14;;;;;;;6.43;3.80;;;15.90;99.90;;;;;;5036356;28;20159;-76
2023/08/02 05:47:40;;;;;;;11.05;4.00;;;15.90;99.90;;;;;;5036379;28;20178;-76
2023/08/02 05:50:06;;;;;;;7.07;4.22;;;15.90;99.90;;;;;;5036261;28;20177;-76
2023/08/02 05:52:32;;;;;;;6.82;3.95;;;15.90;99.90;;;;;;5018522;28;20230;-76
2023/08/02 05:54:58;;;;;;;8.02;3.75;;;16.00;99.90;;;;;;5036310;28;20231;-76
2023/08/02 05:57:24;;;;;;;5.65;3.67;;;16.00;99.90;;;;;;5018399;28;20260;-76
2023/08/02 05:59:50;;;;;;;5.40;3.72;;;16.00;99.90;;;;;;5018531;28;20179;-76
2023/08/02 06:02:16;;;;;;;10.32;3.88;;;16.00;99.90;;;;;;5018349;28;20565;-76
2023/08/02 06:04:43;;;;;;;5.15;3.78;;;16.00;99.90;;;;;;5018361;28;20654;-76
2023/08/02 06:07:09;;;;;;;4.93;4.05;;;16.10;99.90;;;;;;5036054;28;20188;-76
2023/08/02 06:09:35;;;;;;;15.77;4.60;;;16.10;99.90;;;;;;5018362;28;20178;-77
2023/08/02 06:12:01;;;;;;;6.90;4.18;;;16.10;99.90;;;;;;5018129;28;20662;-76
2023/08/02 06:14:27;;;;;;;6.15;4.28;;;16.10;99.90;;;;;;5035980;28;20175;-77
2023/08/02 06:16:53;;;;;;;6.32;4.22;;;16.10;99.90;;;;;;5018129;28;20203;-74
2023/08/02 06:19:18;;;;;;;5.68;3.95;;;16.10;99.90;;;;;;5018465;28;20173;-73
2023/08/02 06:21:44;;;;;;;7.93;4.20;;;16.10;99.90;;;;;;5017648;28;20210;-73
2023/08/02 06:24:10;;;;;;;7.28;4.25;;;16.10;99.90;;;;;;5035724;28;20613;-73
2023/08/02 06:26:36;;;;;;;9.48;4.60;;;16.10;99.90;;;;;;5035675;28;20191;-73
2023/08/02 06:29:01;;;;;;;6.47;4.45;;;16.10;99.90;;;;;;5036051;28;20167;-73
2023/08/02 06:31:27;;;;;;;5.70;3.55;;;16.10;99.90;;;;;;5035588;28;20623;-73
2023/08/02 06:33:53;;;;;;;5.57;3.97;;;16.10;99.90;;;;;;5035726;28;20635;-73
2023/08/02 06:36:19;;;;;;;7.93;4.40;;;16.10;99.90;;;;;;5017668;28;20314;-73
2023/08/02 06:38:48;;;;;;;5.13;3.80;;;16.10;99.90;;;;;;5035477;28;20179;-73
2023/08/02 06:41:13;;;;;;;6.72;4.18;;;16.20;99.90;;;;;;5017707;28;20175;-74
2023/08/02 06:43:39;;;;;;;7.82;4.65;;;16.20;99.90;;;;;;5034690;28;20244;-74
2023/08/02 06:46:05;;;;;;;9.63;4.22;;;16.20;99.90;;;;;;5035409;28;20652;-73
2023/08/02 06:48:31;;;;;;;7.78;4.38;;;16.10;99.90;;;;;;5017577;28;20189;-73
2023/08/02 06:50:57;;;;;;;7.32;4.30;;;16.00;99.90;;;;;;5017922;28;20218;-73
2023/08/02 06:53:23;;;;;;;6.95;4.30;;;16.00;99.90;;;;;;5018581;28;20261;-74
2023/08/02 06:55:49;;;;;;;6.78;4.63;;;15.90;99.90;;;;;;5036577;28;20195;-74
2023/08/02 06:58:14;;;;;;;6.18;4.45;;;16.00;99.90;;;;;;5036092;28;20171;-74
2023/08/02 07:00:41;;;;;;;9.38;4.97;;;16.00;99.90;;;;;;5017701;28;20179;-74
2023/08/02 07:03:07;;;;;;;7.78;4.63;;;16.00;99.90;;;;;;5035274;28;20590;-73
2023/08/02 07:05:34;;;;;;;9.68;4.93;;;16.00;99.90;;;;;;5035035;28;20178;-74
2023/08/02 07:08:01;;;;;;;9.48;5.03;;;16.00;99.90;;;;;;5035064;28;20168;-73
2023/08/02 07:10:28;;;;;;;7.78;5.00;;;16.10;99.90;;;;;;5034966;28;20202;-73
2023/08/02 07:12:55;;;;;;;9.75;5.20;;;16.10;99.90;;;;;;5035039;28;20524;-73
2023/08/02 07:15:21;;;;;;;7.75;4.78;;;16.10;99.90;;;;;;5034838;28;20179;-73
2023/08/02 07:17:48;;;;;;;10.98;5.28;;;16.10;99.90;;;;;;5034806;28;20528;-74
2023/08/02 07:20:14;;;;;;;8.40;4.72;;;16.10;99.90;;;;;;5017027;28;20189;-74
2023/08/02 07:22:43;;;;;;;6.90;4.90;;;16.10;99.90;;;;;;5034319;28;20201;-74
2023/08/02 07:25:09;;;;;;;7.15;4.53;;;16.10;99.90;;;;;;5034870;28;20212;-74
2023/08/02 07:27:37;;;;;;;6.63;4.80;;;16.10;99.90;;;;;;5016964;28;20219;-73
2023/08/02 07:30:04;;;;;;;5.80;4.43;;;16.10;99.90;;;;;;5016727;28;20241;-73
2023/08/02 07:32:31;;;;;;;6.10;4.13;;;16.10;99.90;;;;;;5034438;28;20233;-73
2023/08/02 07:34:57;;;;;;;7.07;4.78;;;16.20;99.90;;;;;;5034290;28;20175;-74
2023/08/02 07:37:23;;;;;;;6.35;4.32;;;16.20;99.90;;;;;;5034137;28;20221;-73
2023/08/02 07:39:49;;;;;;;6.13;4.30;;;16.30;99.90;;;;;;5034520;28;20588;-73
2023/08/02 07:42:15;;;;;;;8.05;4.63;;;16.30;99.90;;;;;;5034563;28;20211;-73
2023/08/02 07:44:41;;;;;;;6.82;4.40;;;16.30;99.90;;;;;;5034124;28;20202;-73
2023/08/02 07:47:06;;;;;;;5.28;3.90;;;16.30;99.90;;;;;;5034085;28;20187;-73
2023/08/02 07:49:32;;;;;;;6.10;4.03;;;16.30;99.90;;;;;;5034382;28;20685;-73
2023/08/02 07:51:59;;;;;;;4.32;3.67;;;16.30;99.90;;;;;;5016073;28;20191;-73
2023/08/02 07:54:24;;;;;;;7.43;4.00;;;16.40;99.90;;;;;;5033968;28;20529;-73
2023/08/02 07:56:50;;;;;;;5.97;3.75;;;16.40;99.90;;;;;;5015971;28;20210;-73
2023/08/02 07:59:16;;;;;;;3.50;3.20;;;16.30;99.90;;;;;;5033834;28;20171;-73
2023/08/02 08:01:42;;;;;;;2.97;2.78;;;16.30;99.90;;;;;;5016084;28;20562;-73
2023/08/02 08:04:08;;;;;;;3.45;3.10;;;16.30;99.90;;;;;;5015901;28;20209;-73
2023/08/02 08:06:34;;;;;;;3.45;3.15;;;16.30;99.90;;;;;;5034022;28;20268;-74
2023/08/02 08:09:00;;;;;;;3.78;3.13;;;16.40;99.90;;;;;;5033398;28;20632;-74
2023/08/02 08:11:29;;;;;;;4.05;3.03;;;16.40;99.90;;;;;;5016229;28;20218;-73
2023/08/02 08:13:56;;;;;;;3.17;2.88;;;16.50;99.90;;;;;;5033616;28;20709;-73
2023/08/02 08:16:22;;;;;;;3.50;2.70;;;16.60;99.90;;;;;;5015813;28;20249;-73
2023/08/02 08:18:48;;;;;;;3.05;2.33;;;16.60;99.90;;;;;;5033465;28;20183;-73
2023/08/02 08:21:14;;;;;;;3.92;2.60;;;16.70;99.90;;;;;;5033414;28;20273;-73
2023/08/02 08:23:40;;;;;;;2.92;2.60;;;16.90;99.90;;;;;;5015371;28;20623;-73
2023/08/02 08:26:10;;;;;;;3.08;2.28;;;17.00;99.90;;;;;;5015646;28;20202;-73
2023/08/02 08:28:35;;;;;;;2.58;2.38;;;17.20;99.90;;;;;;5034082;28;20219;-73
2023/08/02 08:31:03;;;;;;;2.13;2.03;;;17.30;99.90;;;;;;5033275;28;20171;-73
2023/08/02 08:33:30;;;;;;;2.47;2.30;;;17.30;99.90;;;;;;5033497;28;20706;-73
2023/08/02 08:35:55;;;;;;;2.20;2.10;;;17.30;99.90;;;;;;5015300;28;20250;-73
2023/08/02 08:38:21;;;;;;;3.13;2.40;;;17.40;99.90;;;;;;5015290;28;20213;-73
2023/08/02 08:40:51;;;;;;;2.78;2.00;;;17.40;99.90;;;;;;5033225;28;20258;-73
2023/08/02 08:43:18;;;;;;;2.35;2.15;;;17.40;99.90;;;;;;5015414;28;20207;-73
2023/08/02 08:45:45;;;;;;;1.83;1.73;;;17.40;99.90;;;;;;5033475;28;20237;-73
2023/08/02 08:48:12;;;;;;;2.15;1.95;;;17.40;99.90;;;;;;5033158;28;20201;-73
2023/08/02 08:50:44;;;;;;;2.10;1.90;;;17.50;99.90;;;;;;5033101;28;20175;-73
2023/08/02 08:53:17;;;;;;;2.00;1.90;;;17.50;99.90;;;;;;5033006;28;20167;-73
2023/08/02 08:55:48;;;;;;;2.85;2.40;;;17.40;99.90;;;;;;5015391;28;20199;-73
2023/08/02 08:58:14;;;;;;;2.90;2.00;;;17.30;99.90;;;;;;5015388;28;20514;-73
2023/08/02 09:00:42;;;;;;;1.98;1.85;;;17.20;99.90;;;;;;5015303;28;20233;-73
2023/08/02 09:03:09;;;;;;;4.57;2.75;;;17.20;99.90;;;;;;5033024;28;20199;-73
2023/08/02 09:05:35;;;;;;;2.20;2.10;;;17.10;99.90;;;;;;5015161;28;20209;-73
2023/08/02 09:08:01;;;;;;;2.17;2.08;;;17.10;99.90;;;;;;5035763;28;20174;-73
2023/08/02 09:10:27;;;;;;;2.70;2.15;;;17.10;99.90;;;;;;5019101;28;20215;-73
2023/08/02 09:12:52;;;;;;;3.45;2.10;;;17.10;99.90;;;;;;5019182;28;20186;-73
2023/08/02 09:15:18;;;;;;;2.78;2.10;;;17.10;99.90;;;;;;5036802;28;20175;-73
2023/08/02 09:17:48;;;;;;;2.67;2.17;;;17.20;99.90;;;;;;5018965;28;20173;-73
2023/08/02 09:20:14;;;;;;;2.38;2.17;;;17.20;99.90;;;;;;5019190;28;20551;-73
2023/08/02 09:22:40;;;;;;;2.05;1.95;;;17.40;99.90;;;;;;5018956;28;20604;-73
2023/08/02 09:25:08;;;;;;;2.40;2.17;;;17.60;99.90;;;;;;5037166;28;20224;-73
2023/08/02 09:27:34;;;;;;;2.53;2.20;;;17.70;99.90;;;;;;5036933;28;20191;-73
2023/08/02 09:30:00;;;;;;;2.05;1.92;;;17.80;99.90;;;;;;5018836;28;20175;-73
2023/08/02 09:32:26;;;;;;;2.00;1.90;;;18.00;99.90;;;;;;5036685;28;20183;-73
2023/08/02 09:34:57;;;;;;;3.47;2.10;;;18.00;99.90;;;;;;5018818;28;20666;-74
2023/08/02 09:37:31;;;;;;;1.85;1.75;;;18.10;99.90;;;;;;5018552;28;20322;-73
2023/08/02 09:39:56;;;;;;;1.88;1.67;;;18.20;99.90;;;;;;5036623;28;20545;-73
2023/08/02 09:42:26;;;;;;;2.70;1.90;;;18.40;99.90;;;;;;5018946;28;20189;-73
2023/08/02 09:45:00;;;;;;;2.60;1.90;;;18.70;99.90;;;;;;5018698;28;20650;-73
2023/08/02 09:47:27;;;;;;;2.15;1.80;;;18.90;99.90;;;;;;5036380;28;20598;-73
2023/08/02 09:50:01;;;;;;;1.67;1.58;;;18.80;99.90;;;;;;5036378;28;20258;-74
2023/08/02 09:52:27;;;;;;;2.28;1.75;;;19.00;99.90;;;;;;5036059;28;20288;-74
2023/08/02 09:54:53;;;;;;;1.63;1.50;;;19.30;99.90;;;;;;5036386;28;20643;-74
2023/08/02 09:57:26;;;;;;;1.58;1.48;;;19.60;99.90;;;;;;5036148;28;20195;-73
2023/08/02 09:59:55;;;;;;;1.67;1.30;;;19.90;99.90;;;;;;5036282;28;20163;-74
2023/08/02 10:02:25;;;;;;;1.60;1.50;;;20.10;99.90;;;;;;5035988;28;20266;-74
2023/08/02 10:04:57;;;;;;;1.30;1.30;;;20.30;99.90;;;;;;5018399;28;20631;-74
2023/08/02 10:07:38;;;;;;;1.38;1.30;;;20.30;99.90;;;;;;5018029;28;20203;-76
2023/08/02 10:10:07;;;;;;;1.40;1.30;;;20.20;99.90;;;;;;5036033;28;20217;-74
2023/08/02 10:12:38;;;;;;;1.33;1.20;;;20.20;99.90;;;;;;5035915;28;20630;-73
2023/08/02 10:15:05;;;;;;;2.92;1.40;;;20.30;99.90;;;;;;5035953;28;20171;-73
2023/08/02 10:17:31;;;;;;;1.52;1.35;;;20.20;99.90;;;;;;5017771;28;20223;-75
2023/08/02 10:20:03;;;;;;;1.50;1.40;;;20.10;99.90;;;;;;5035071;28;20171;-73
2023/08/02 10:22:30;;;;;;;1.48;1.40;;;19.90;99.90;;;;;;5017604;28;20281;-73
2023/08/02 10:24:57;;;;;;;1.20;1.20;;;19.80;99.90;;;;;;5018135;28;20233;-75
2023/08/02 10:27:25;;;;;;;1.20;1.20;;;19.80;99.90;;;;;;5035990;28;20301;-74
2023/08/02 10:29:52;;;;;;;3.70;1.40;;;19.70;99.90;;;;;;5035766;28;20206;-74
2023/08/02 10:32:19;;;;;;;1.30;1.23;;;19.80;99.90;;;;;;5035633;28;20519;-74
2023/08/02 10:34:47;;;;;;;1.30;1.20;;;19.90;99.90;;;;;;5035601;28;20163;-74
2023/08/02 10:37:13;;;;;;;1.67;1.40;;;20.00;99.90;;;;;;5017707;28;20210;-74
2023/08/02 10:39:48;;;;;;;2.50;1.33;;;19.90;99.90;;;;;;5017611;28;20182;-74
2023/08/02 10:42:17;;;;;;;1.15;1.15;;;20.00;99.90;;;;;;5017653;28;20178;-74
2023/08/02 10:44:55;;;;;;;1.10;1.10;;;20.10;99.90;;;;;;5035543;28;20167;-74
2023/08/02 10:47:26;;;;;;;2.60;1.30;;;20.20;99.90;;;;;;5017547;28;20286;-74
2023/08/02 10:49:53;;;;;;;1.35;1.27;;;20.30;99.90;;;;;;5017761;28;20182;-74
2023/08/02 10:52:29;;;;;;;1.20;1.20;;;20.60;99.90;;;;;;5035313;28;20179;-74
2023/08/02 10:55:13;;;;;;;1.30;1.20;;;20.70;99.90;;;;;;5017466;28;20175;-74
2023/08/02 10:57:57;;;;;;;1.05;1.05;;;20.50;99.90;;;;;;5017933;28;20573;-75
2023/08/02 11:00:26;;;;;;;1.23;1.13;;;20.30;99.90;;;;;;5018146;28;20175;-74
2023/08/02 11:02:53;;;;;;;1.95;1.27;;;20.10;99.90;;;;;;5017865;28;20756;-77
2023/08/02 11:05:40;;;;;;;1.20;1.20;;;19.90;99.90;;;;;;5018598;28;20181;-77
2023/08/02 11:08:09;;;;;;;2.25;1.10;;;19.80;99.90;;;;;;5018063;28;20258;-76
2023/08/02 11:10:54;;;;;;;1.20;1.20;;;19.70;99.90;;;;;;5018650;28;20176;-77
2023/08/02 11:13:22;;;;;;;1.13;1.13;;;19.50;99.90;;;;;;5036165;28;20240;-77
2023/08/02 11:16:09;;;;;;;1.20;1.20;;;19.40;99.90;;;;;;5044778;28;20203;-74
2023/08/02 11:18:35;;;;;;;1.10;1.10;;;19.30;99.90;;;;;;5018616;28;20340;-76
2023/08/02 11:21:11;;;;;;;1.10;1.10;;;19.30;99.90;;;;;;5035459;28;20186;-76
2023/08/02 11:23:38;;;;;;;1.30;1.30;;;19.40;99.90;;;;;;5017983;28;20264;-76
2023/08/02 11:26:11;;;;;;;3.80;1.20;;;19.60;99.90;;;;;;5017667;28;20195;-76
2023/08/02 11:28:49;;;;;;;2.45;1.20;;;19.70;99.90;;;;;;5017289;28;20178;-75
2023/08/02 11:31:16;;;;;;;1.88;1.30;;;19.90;99.90;;;;;;5017480;28;20286;-77
2023/08/02 11:33:42;;;;;;;1.83;1.20;;;19.90;99.90;;;;;;5017851;28;20183;-76
2023/08/02 11:36:08;;;;;;;1.23;1.10;;;20.10;99.90;;;;;;5018835;28;20230;-77
2023/08/02 11:38:36;;;;;;;1.08;1.08;;;20.40;99.90;;;;;;5036130;28;20171;-74
2023/08/02 11:41:02;;;;;;;1.10;1.10;;;20.50;99.90;;;;;;5019231;28;20183;-77
2023/08/02 11:43:35;;;;;;;1.20;1.10;;;20.80;99.90;;;;;;5035495;28;20221;-75
2023/08/02 11:46:24;;;;;;;1.10;1.10;;;21.30;99.90;;;;;;5018314;28;20573;-77
2023/08/02 11:48:50;;;;;;;1.00;1.00;;;21.60;99.90;;;;;;5017003;28;20167;-77
2023/08/02 11:51:19;;;;;;;1.00;1.00;;;21.80;99.90;;;;;;5017802;28;20189;-75
2023/08/02 11:53:56;;;;;;;1.13;1.02;;;22.00;99.90;;;;;;5035808;28;20172;-76
2023/08/02 11:56:23;;;;;;;1.00;1.00;;;22.40;99.90;;;;;;5018403;28;20221;-77
2023/08/02 11:58:50;;;;;;;0.90;0.90;;;22.50;99.90;;;;;;5036076;28;20178;-74
2023/08/02 12:01:17;;;;;;;1.95;0.95;;;22.40;99.90;;;;;;5016877;28;20179;-73
2023/08/02 12:04:06;;;;;;;1.40;1.00;;;22.40;99.90;;;;;;5034748;28;20179;-73
2023/08/02 12:06:51;;;;;;;0.95;0.90;;;22.30;99.90;;;;;;5034488;28;20195;-75
2023/08/02 12:09:18;;;;;;;1.92;1.00;;;22.20;99.90;;;;;;5016668;28;20181;-75
2023/08/02 12:11:51;;;;;;;0.90;0.90;;;22.40;99.90;;;;;;5016735;28;20254;-75
2023/08/02 12:14:29;;;;;;;0.90;0.90;;;22.80;99.90;;;;;;5034772;28;20166;-75
2023/08/02 12:16:55;;;;;;;1.55;0.93;;;22.90;99.90;;;;;;5016534;28;20555;-75
2023/08/02 12:19:40;;;;;;;1.50;1.00;;;22.70;99.90;;;;;;5034267;28;20183;-73
2023/08/02 12:22:06;;;;;;;1.20;0.90;;;22.40;99.90;;;;;;5016995;28;20187;-74
2023/08/02 12:24:34;;;;;;;0.90;0.90;;;22.10;99.90;;;;;;5034048;28;20245;-73
2023/08/02 12:27:18;;;;;;;0.90;0.90;;;21.70;99.90;;;;;;5034423;28;20199;-74
2023/08/02 12:29:46;;;;;;;0.90;0.90;;;21.70;99.90;;;;;;5016841;28;20183;-73
2023/08/02 12:32:26;;;;;;;0.80;0.80;;;21.90;99.90;;;;;;5034790;28;20173;-73
2023/08/02 12:34:51;;;;;;;0.90;0.90;;;22.00;99.90;;;;;;5034633;28;20509;-73
2023/08/02 12:37:18;;;;;;;0.90;0.90;;;22.10;99.90;;;;;;5017255;28;20311;-73
2023/08/02 12:39:44;;;;;;;1.20;0.80;;;22.60;99.90;;;;;;5033906;28;20183;-73
2023/08/02 12:42:10;;;;;;;1.17;0.82;;;23.00;99.90;;;;;;5017734;28;20221;-76
2023/08/02 12:44:36;;;;;;;0.90;0.90;;;23.30;99.90;;;;;;5017444;28;20731;-76
2023/08/02 12:47:01;;;;;;;0.82;0.82;;;23.50;99.90;;;;;;5036986;28;20195;-76